createdAt,value
2022-09-22T00:03:01.403Z,11.33
2022-09-22T00:08:03.068Z,11.29
2022-09-22T00:13:04.675Z,11.30
2022-09-22T00:18:06.259Z,11.30
2022-09-22T00:23:07.953Z,11.18
2022-09-22T00:28:12.029Z,11.17
2022-09-22T00:33:13.666Z,11.06
2022-09-22T00:38:15.263Z,11.03
2022-09-22T00:43:27.980Z,11.01
2022-09-22T00:48:33.847Z,10.99
2022-09-22T00:53:35.921Z,10.93
2022-09-22T00:58:43.759Z,10.89
2022-09-22T01:03:46.427Z,10.86
2022-09-22T01:08:48.203Z,10.85
2022-09-22T01:13:57.577Z,10.79
2022-09-22T01:19:27.207Z,10.72
2022-09-22T01:25:02.452Z,10.74
2022-09-22T01:30:21.246Z,10.67
2022-09-22T01:35:54.228Z,10.61
2022-09-22T01:41:03.888Z,10.61
2022-09-22T01:46:28.751Z,10.56
2022-09-22T01:51:37.452Z,10.51
2022-09-22T01:56:41.989Z,10.49
2022-09-22T02:01:55.016Z,10.47
2022-09-22T02:07:09.903Z,10.41
2022-09-22T02:12:11.501Z,10.41
2022-09-22T02:17:14.711Z,10.33
2022-09-22T02:22:16.339Z,10.30
2022-09-22T02:27:26.436Z,10.29
2022-09-22T02:32:29.754Z,10.29
2022-09-22T02:37:56.303Z,10.19
2022-09-22T02:42:57.846Z,10.21
2022-09-22T02:48:05.732Z,10.17
2022-09-22T02:53:13.930Z,10.15
2022-09-22T02:58:17.250Z,10.12
2022-09-22T03:03:19.114Z,10.06
2022-09-22T03:08:20.842Z,10.05
2022-09-22T03:13:22.459Z,9.98
2022-09-22T03:18:24.189Z,10.01
2022-09-22T03:23:25.992Z,10.05
2022-09-22T03:28:27.655Z,9.95
2022-09-22T03:33:29.246Z,9.92
2022-09-22T03:38:30.882Z,9.88
2022-09-22T03:43:32.465Z,9.86
2022-09-22T03:48:34.092Z,9.87
2022-09-22T03:53:36.588Z,9.85
2022-09-22T03:58:39.235Z,9.81
2022-09-22T04:03:41.039Z,9.82
2022-09-22T04:08:42.678Z,9.79
2022-09-22T04:13:46.642Z,9.71
2022-09-22T04:18:48.374Z,9.69
2022-09-22T04:23:50.126Z,9.68
2022-09-22T04:28:51.787Z,9.73
2022-09-22T04:33:53.439Z,9.68
2022-09-22T04:38:55.527Z,9.66
2022-09-22T04:43:57.663Z,9.67
2022-09-22T04:48:59.443Z,9.65
2022-09-22T04:54:01.143Z,9.60
2022-09-22T04:59:03.241Z,9.59
2022-09-22T05:04:05.250Z,9.56
2022-09-22T05:09:07.045Z,9.55
2022-09-22T05:14:25.615Z,9.51
2022-09-22T05:19:28.065Z,9.55
2022-09-22T05:24:29.984Z,9.57
2022-09-22T05:29:31.832Z,9.53
2022-09-22T05:34:33.450Z,9.56
2022-09-22T05:39:43.902Z,9.54
2022-09-22T05:44:45.490Z,9.52
2022-09-22T05:49:47.086Z,9.56
2022-09-22T05:54:48.718Z,9.58
2022-09-22T05:59:50.372Z,9.60
2022-09-22T06:04:52.339Z,9.65
2022-09-22T06:09:53.983Z,9.65
2022-09-22T06:14:56.639Z,9.67
2022-09-22T06:20:00.935Z,9.79
2022-09-22T06:25:03.411Z,9.89
2022-09-22T06:30:05.434Z,10.01
2022-09-22T06:35:07.772Z,10.05
2022-09-22T06:40:11.944Z,10.13
2022-09-22T06:45:17.748Z,10.20
2022-09-22T06:50:19.407Z,10.25
2022-09-22T06:55:20.966Z,10.23
2022-09-22T07:00:23.003Z,10.27
2022-09-22T07:05:24.680Z,10.40
2022-09-22T07:10:26.372Z,10.51
2022-09-22T07:15:30.074Z,10.62
2022-09-22T07:20:33.726Z,10.74
2022-09-22T07:25:35.951Z,10.89
2022-09-22T07:30:40.208Z,11.05
2022-09-22T07:35:41.760Z,11.21
2022-09-22T07:40:52.150Z,11.29
2022-09-22T07:45:57.239Z,11.46
2022-09-22T07:51:00.164Z,11.66
2022-09-22T07:56:12.359Z,11.80
2022-09-22T08:01:14.826Z,12.00
2022-09-22T08:06:18.513Z,12.13
2022-09-22T08:11:22.515Z,12.50
2022-09-22T08:16:28.304Z,12.74
2022-09-22T08:21:35.207Z,12.99
2022-09-22T08:26:38.950Z,13.23
2022-09-22T08:31:41.901Z,13.55
2022-09-22T08:36:47.363Z,13.86
2022-09-22T08:42:09.310Z,14.23
2022-09-22T08:47:17.161Z,14.29
2022-09-22T08:52:43.263Z,14.35
2022-09-22T08:58:09.131Z,14.48
2022-09-22T09:03:38.906Z,14.58
2022-09-22T09:09:05.008Z,15.11
2022-09-22T09:14:09.950Z,15.19
2022-09-22T09:19:37.850Z,15.24
2022-09-22T09:30:12.418Z,15.88
2022-09-22T09:35:16.621Z,15.95
2022-09-22T09:40:22.105Z,16.22
2022-09-22T09:45:32.841Z,16.52
2022-09-22T09:50:36.178Z,16.44
2022-09-22T09:55:37.774Z,16.79
2022-09-22T10:00:59.741Z,17.05
2022-09-22T10:06:06.258Z,17.09
2022-09-22T10:11:09.992Z,17.16
2022-09-22T10:16:28.891Z,17.32
2022-09-22T10:21:30.528Z,17.51
2022-09-22T10:26:33.484Z,17.25
2022-09-22T10:31:38.233Z,17.24
2022-09-22T10:36:45.680Z,17.45
2022-09-22T10:41:48.995Z,17.65
2022-09-22T10:47:14.498Z,17.79
2022-09-22T10:52:35.903Z,18.32
2022-09-22T10:57:43.575Z,18.17
2022-09-22T11:02:48.054Z,18.22
2022-09-22T11:08:26.350Z,18.30
2022-09-22T11:13:56.427Z,18.39
2022-09-22T11:19:31.681Z,18.81
2022-09-22T11:24:57.590Z,19.00
2022-09-22T11:30:11.695Z,18.53
2022-09-22T11:35:27.492Z,18.80
2022-09-22T11:40:45.069Z,19.16
2022-09-22T11:45:51.245Z,19.07
2022-09-22T11:51:23.317Z,19.41
2022-09-22T11:56:47.506Z,19.34
2022-09-22T12:01:50.948Z,19.08
2022-09-22T12:06:56.855Z,19.22
2022-09-22T12:12:01.406Z,19.41
2022-09-22T12:17:20.008Z,19.28
2022-09-22T12:22:37.745Z,19.47
2022-09-22T12:27:40.342Z,19.45
2022-09-22T12:32:43.000Z,19.54
2022-09-22T12:37:45.903Z,19.30
2022-09-22T12:42:51.819Z,19.52
2022-09-22T12:47:56.907Z,18.73
2022-09-22T12:53:03.454Z,18.96
2022-09-22T12:58:28.105Z,19.63
2022-09-22T13:03:30.598Z,19.36
2022-09-22T13:08:32.518Z,19.15
2022-09-22T13:13:41.666Z,19.28
2022-09-22T13:18:52.321Z,18.99
2022-09-22T13:23:54.022Z,18.90
2022-09-22T13:29:11.816Z,18.73
2022-09-22T13:34:31.117Z,18.77
2022-09-22T13:39:36.337Z,18.76
2022-09-22T13:44:40.338Z,19.12
2022-09-22T13:49:49.548Z,19.07
2022-09-22T13:55:04.698Z,19.42
2022-09-22T14:00:08.975Z,19.25
2022-09-22T14:05:18.895Z,19.06
2022-09-22T14:10:21.901Z,18.77
2022-09-22T14:15:33.652Z,18.59
2022-09-22T14:20:43.472Z,18.68
2022-09-22T14:25:45.496Z,18.88
2022-09-22T14:30:47.780Z,18.98
2022-09-22T14:35:52.189Z,18.98
2022-09-22T14:40:56.109Z,19.06
2022-09-22T14:46:00.670Z,19.13
2022-09-22T14:51:07.407Z,19.07
2022-09-22T14:56:22.944Z,19.07
2022-09-22T15:01:49.518Z,18.93
2022-09-22T15:06:56.435Z,18.90
2022-09-22T15:12:03.492Z,18.87
2022-09-22T15:17:44.083Z,18.69
2022-09-22T15:22:46.355Z,18.64
2022-09-22T15:27:53.530Z,18.70
2022-09-22T15:32:55.930Z,18.59
2022-09-22T15:37:57.712Z,18.37
2022-09-22T15:43:12.867Z,18.30
2022-09-22T15:48:24.973Z,18.11
2022-09-22T15:53:26.888Z,18.08
2022-09-22T15:58:41.716Z,18.02
2022-09-22T16:03:44.346Z,17.87
2022-09-22T16:08:51.713Z,17.78
2022-09-22T16:13:53.588Z,17.73
2022-09-22T16:18:56.002Z,17.66
2022-09-22T16:24:03.603Z,17.58
2022-09-22T16:29:07.215Z,17.46
2022-09-22T16:34:09.471Z,17.37
2022-09-22T16:39:11.156Z,17.30
2022-09-22T16:44:13.329Z,17.22
2022-09-22T16:49:20.341Z,17.16
2022-09-22T16:54:22.314Z,17.08
2022-09-22T16:59:24.011Z,17.03
2022-09-22T17:04:25.823Z,16.96
2022-09-22T17:09:27.505Z,16.91
2022-09-22T17:14:29.679Z,16.84
2022-09-22T17:19:31.259Z,16.78
2022-09-22T17:24:32.931Z,16.75
2022-09-22T17:29:34.971Z,16.60
2022-09-22T17:34:38.308Z,16.57
2022-09-22T17:39:40.187Z,16.53
2022-09-22T17:44:41.935Z,16.34
2022-09-22T17:50:02.388Z,16.17
2022-09-22T17:55:11.835Z,16.20
2022-09-22T18:00:16.800Z,16.20
2022-09-22T18:05:22.003Z,16.12
2022-09-22T18:10:32.197Z,16.09
2022-09-22T18:15:34.074Z,15.97
2022-09-22T18:20:35.612Z,15.93
2022-09-22T18:25:37.260Z,15.91
2022-09-22T18:30:40.630Z,15.79
2022-09-22T18:35:46.106Z,15.73
2022-09-22T18:40:49.399Z,15.70
2022-09-22T18:45:51.185Z,15.62
2022-09-22T18:50:54.244Z,15.62
2022-09-22T18:55:56.611Z,15.49
2022-09-22T19:00:59.688Z,15.46
2022-09-22T19:06:02.469Z,15.41
2022-09-22T19:11:04.317Z,15.35
2022-09-22T19:16:06.576Z,15.31
2022-09-22T19:21:14.350Z,15.25
2022-09-22T19:26:17.201Z,15.17
2022-09-22T19:31:18.861Z,15.15
2022-09-22T19:36:20.478Z,15.07
2022-09-22T19:41:24.128Z,14.99
2022-09-22T19:46:25.737Z,14.94
2022-09-22T19:51:27.486Z,14.91
2022-09-22T19:56:29.090Z,14.83
2022-09-22T20:01:34.598Z,14.79
2022-09-22T20:06:36.254Z,14.78
2022-09-22T20:11:43.932Z,14.74
2022-09-22T20:16:47.594Z,14.65
2022-09-22T20:21:51.465Z,14.62
2022-09-22T20:26:53.278Z,14.56
2022-09-22T20:31:55.264Z,14.51
2022-09-22T20:36:57.209Z,14.45
2022-09-22T20:41:59.807Z,14.39
2022-09-22T20:47:01.552Z,14.38
2022-09-22T20:52:03.413Z,14.35
2022-09-22T20:57:05.785Z,14.30
2022-09-22T21:02:07.537Z,14.32
2022-09-22T21:07:10.190Z,14.30
2022-09-22T21:12:13.536Z,14.28
2022-09-22T21:17:15.600Z,14.25
2022-09-22T21:22:17.422Z,14.22
2022-09-22T21:27:19.807Z,14.17
2022-09-22T21:32:22.149Z,14.10
2022-09-22T21:37:25.030Z,14.07
2022-09-22T21:42:27.681Z,14.10
2022-09-22T21:47:29.461Z,14.05
2022-09-22T21:52:31.294Z,14.02
2022-09-22T21:57:32.935Z,14.00
2022-09-22T22:02:54.636Z,13.97
2022-09-22T22:07:56.652Z,13.87
2022-09-22T22:12:58.292Z,13.88
2022-09-22T22:17:59.859Z,13.87
2022-09-22T22:23:01.392Z,13.83
2022-09-22T22:28:03.074Z,13.76
2022-09-22T22:33:04.895Z,13.70
2022-09-22T22:38:06.649Z,13.66
2022-09-22T22:43:08.254Z,13.70
2022-09-22T22:48:10.875Z,13.71
2022-09-22T22:53:13.303Z,13.66
2022-09-22T22:58:14.913Z,13.58
2022-09-22T23:03:16.542Z,13.59
2022-09-22T23:08:18.173Z,13.58
2022-09-22T23:13:19.828Z,13.60
2022-09-22T23:18:21.418Z,13.41
2022-09-22T23:23:23.448Z,13.46
2022-09-22T23:28:25.747Z,13.37
2022-09-22T23:33:28.825Z,13.41
2022-09-22T23:38:32.174Z,13.44
2022-09-22T23:43:33.810Z,13.26
2022-09-22T23:48:36.236Z,13.10
2022-09-22T23:53:38.019Z,13.18
2022-09-22T23:58:39.605Z,13.24
